sensor_id;sensor_type;location;lat;lon;timestamp;P1;durP1;ratioP1;P2;durP2;ratioP2
1378;SDS011;683;48.738;9.226;2022-07-24T00:00:08;16.63;;;15.03;;
1378;SDS011;683;48.738;9.226;2022-07-24T00:02:38;18.27;;;16.37;;
1378;SDS011;683;48.738;9.226;2022-07-24T00:05:12;17.40;;;15.97;;
1378;SDS011;683;48.738;9.226;2022-07-24T00:07:39;18.60;;;17.00;;
1378;SDS011;683;48.738;9.226;2022-07-24T00:10:07;17.70;;;16.13;;
1378;SDS011;683;48.738;9.226;2022-07-24T00:12:35;17.50;;;16.07;;
1378;SDS011;683;48.738;9.226;2022-07-24T00:15:09;16.90;;;15.50;;
1378;SDS011;683;48.738;9.226;2022-07-24T00:17:37;16.83;;;15.43;;
1378;SDS011;683;48.738;9.226;2022-07-24T00:20:05;16.63;;;15.23;;
1378;SDS011;683;48.738;9.226;2022-07-24T00:22:35;17.50;;;16.00;;
1378;SDS011;683;48.738;9.226;2022-07-24T00:25:02;20.63;;;17.87;;
1378;SDS011;683;48.738;9.226;2022-07-24T00:27:31;17.50;;;15.90;;
1378;SDS011;683;48.738;9.226;2022-07-24T00:29:59;17.60;;;15.90;;
1378;SDS011;683;48.738;9.226;2022-07-24T00:32:27;17.57;;;16.10;;
1378;SDS011;683;48.738;9.226;2022-07-24T00:34:54;17.57;;;16.00;;
1378;SDS011;683;48.738;9.226;2022-07-24T00:37:21;19.47;;;17.67;;
1378;SDS011;683;48.738;9.226;2022-07-24T00:39:54;19.00;;;17.40;;
1378;SDS011;683;48.738;9.226;2022-07-24T00:42:21;19.70;;;18.03;;
1378;SDS011;683;48.738;9.226;2022-07-24T00:44:49;19.10;;;17.40;;
1378;SDS011;683;48.738;9.226;2022-07-24T00:47:16;18.50;;;16.87;;
1378;SDS011;683;48.738;9.226;2022-07-24T00:49:43;22.40;;;18.53;;
1378;SDS011;683;48.738;9.226;2022-07-24T00:52:11;20.07;;;18.30;;
1378;SDS011;683;48.738;9.226;2022-07-24T00:54:38;19.37;;;17.67;;
1378;SDS011;683;48.738;9.226;2022-07-24T00:57:07;18.47;;;17.07;;
1378;SDS011;683;48.738;9.226;2022-07-24T00:59:34;18.10;;;16.50;;
1378;SDS011;683;48.738;9.226;2022-07-24T01:02:02;17.97;;;16.43;;
1378;SDS011;683;48.738;9.226;2022-07-24T01:04:30;17.30;;;15.90;;
1378;SDS011;683;48.738;9.226;2022-07-24T01:07:00;17.33;;;15.83;;
1378;SDS011;683;48.738;9.226;2022-07-24T01:09:28;18.53;;;16.83;;
1378;SDS011;683;48.738;9.226;2022-07-24T01:11:57;18.00;;;16.23;;
1378;SDS011;683;48.738;9.226;2022-07-24T01:14:26;19.27;;;17.27;;
1378;SDS011;683;48.738;9.226;2022-07-24T01:16:54;18.40;;;16.90;;
1378;SDS011;683;48.738;9.226;2022-07-24T01:19:21;18.53;;;16.93;;
1378;SDS011;683;48.738;9.226;2022-07-24T01:24:46;18.00;;;16.40;;
1378;SDS011;683;48.738;9.226;2022-07-24T01:27:14;18.00;;;16.67;;
1378;SDS011;683;48.738;9.226;2022-07-24T01:29:43;18.83;;;17.33;;
1378;SDS011;683;48.738;9.226;2022-07-24T01:32:10;17.90;;;16.40;;
1378;SDS011;683;48.738;9.226;2022-07-24T01:34:37;17.00;;;15.50;;
1378;SDS011;683;48.738;9.226;2022-07-24T01:37:05;18.97;;;17.27;;
1378;SDS011;683;48.738;9.226;2022-07-24T01:39:34;21.53;;;19.80;;
1378;SDS011;683;48.738;9.226;2022-07-24T01:42:06;21.60;;;19.53;;
1378;SDS011;683;48.738;9.226;2022-07-24T01:44:33;21.73;;;19.50;;
1378;SDS011;683;48.738;9.226;2022-07-24T01:47:00;19.40;;;17.80;;
1378;SDS011;683;48.738;9.226;2022-07-24T01:49:28;18.13;;;16.53;;
1378;SDS011;683;48.738;9.226;2022-07-24T01:51:55;17.87;;;16.43;;
1378;SDS011;683;48.738;9.226;2022-07-24T01:54:30;19.40;;;17.67;;
1378;SDS011;683;48.738;9.226;2022-07-24T01:56:58;19.40;;;17.90;;
1378;SDS011;683;48.738;9.226;2022-07-24T01:59:26;19.70;;;17.90;;
1378;SDS011;683;48.738;9.226;2022-07-24T02:01:53;19.30;;;17.70;;
1378;SDS011;683;48.738;9.226;2022-07-24T02:04:21;18.73;;;17.03;;
1378;SDS011;683;48.738;9.226;2022-07-24T02:06:49;22.33;;;20.33;;
1378;SDS011;683;48.738;9.226;2022-07-24T02:09:16;24.53;;;22.43;;
1378;SDS011;683;48.738;9.226;2022-07-24T02:11:43;23.60;;;21.47;;
1378;SDS011;683;48.738;9.226;2022-07-24T02:14:12;23.00;;;20.90;;
1378;SDS011;683;48.738;9.226;2022-07-24T02:16:40;20.87;;;18.90;;
1378;SDS011;683;48.738;9.226;2022-07-24T02:19:07;20.70;;;18.90;;
1378;SDS011;683;48.738;9.226;2022-07-24T02:21:34;21.40;;;19.40;;
1378;SDS011;683;48.738;9.226;2022-07-24T02:24:02;24.87;;;22.67;;
1378;SDS011;683;48.738;9.226;2022-07-24T02:26:29;24.83;;;22.67;;
1378;SDS011;683;48.738;9.226;2022-07-24T02:29:00;26.70;;;24.20;;
1378;SDS011;683;48.738;9.226;2022-07-24T02:31:29;26.57;;;24.17;;
1378;SDS011;683;48.738;9.226;2022-07-24T02:33:56;26.03;;;23.47;;
1378;SDS011;683;48.738;9.226;2022-07-24T02:36:24;25.70;;;23.40;;
1378;SDS011;683;48.738;9.226;2022-07-24T02:38:51;25.90;;;23.47;;
1378;SDS011;683;48.738;9.226;2022-07-24T02:41:19;25.77;;;23.37;;
1378;SDS011;683;48.738;9.226;2022-07-24T02:43:46;25.47;;;23.27;;
1378;SDS011;683;48.738;9.226;2022-07-24T02:46:14;25.20;;;22.93;;
1378;SDS011;683;48.738;9.226;2022-07-24T02:48:43;27.47;;;24.80;;
1378;SDS011;683;48.738;9.226;2022-07-24T02:51:10;27.90;;;25.23;;
1378;SDS011;683;48.738;9.226;2022-07-24T02:53:37;27.37;;;24.80;;
1378;SDS011;683;48.738;9.226;2022-07-24T02:56:05;26.30;;;23.77;;
1378;SDS011;683;48.738;9.226;2022-07-24T02:58:33;26.70;;;24.20;;
1378;SDS011;683;48.738;9.226;2022-07-24T03:01:00;26.47;;;23.97;;
1378;SDS011;683;48.738;9.226;2022-07-24T03:03:31;29.20;;;26.50;;
1378;SDS011;683;48.738;9.226;2022-07-24T03:06:00;26.90;;;24.40;;
1378;SDS011;683;48.738;9.226;2022-07-24T03:08:27;26.03;;;23.57;;
1378;SDS011;683;48.738;9.226;2022-07-24T03:10:54;27.27;;;24.80;;
1378;SDS011;683;48.738;9.226;2022-07-24T03:13:22;28.70;;;26.10;;
1378;SDS011;683;48.738;9.226;2022-07-24T03:15:49;30.17;;;27.47;;
1378;SDS011;683;48.738;9.226;2022-07-24T03:18:16;30.97;;;27.90;;
1378;SDS011;683;48.738;9.226;2022-07-24T03:20:44;30.77;;;27.97;;
1378;SDS011;683;48.738;9.226;2022-07-24T03:23:12;29.13;;;26.43;;
1378;SDS011;683;48.738;9.226;2022-07-24T03:25:40;31.33;;;28.30;;
1378;SDS011;683;48.738;9.226;2022-07-24T03:28:08;29.60;;;26.83;;
1378;SDS011;683;48.738;9.226;2022-07-24T03:33:28;28.87;;;25.97;;
1378;SDS011;683;48.738;9.226;2022-07-24T03:35:55;28.40;;;25.70;;
1378;SDS011;683;48.738;9.226;2022-07-24T03:38:24;28.93;;;26.13;;
1378;SDS011;683;48.738;9.226;2022-07-24T03:40:52;28.70;;;26.10;;
1378;SDS011;683;48.738;9.226;2022-07-24T03:43:19;26.23;;;23.87;;
1378;SDS011;683;48.738;9.226;2022-07-24T03:45:46;28.10;;;25.40;;
1378;SDS011;683;48.738;9.226;2022-07-24T03:48:13;29.37;;;26.47;;
1378;SDS011;683;48.738;9.226;2022-07-24T03:50:41;29.03;;;26.23;;
1378;SDS011;683;48.738;9.226;2022-07-24T03:53:08;25.40;;;23.10;;
1378;SDS011;683;48.738;9.226;2022-07-24T03:55:37;26.27;;;23.90;;
1378;SDS011;683;48.738;9.226;2022-07-24T03:58:04;24.63;;;22.60;;
1378;SDS011;683;48.738;9.226;2022-07-24T04:03:25;26.90;;;24.23;;
1378;SDS011;683;48.738;9.226;2022-07-24T04:05:52;26.70;;;24.30;;
1378;SDS011;683;48.738;9.226;2022-07-24T04:08:19;25.77;;;23.47;;
1378;SDS011;683;48.738;9.226;2022-07-24T04:10:48;26.67;;;24.07;;
1378;SDS011;683;48.738;9.226;2022-07-24T04:13:21;26.80;;;24.33;;
1378;SDS011;683;48.738;9.226;2022-07-24T04:15:49;27.47;;;24.63;;
1378;SDS011;683;48.738;9.226;2022-07-24T04:18:16;29.70;;;27.00;;
1378;SDS011;683;48.738;9.226;2022-07-24T04:20:44;25.37;;;23.07;;
1378;SDS011;683;48.738;9.226;2022-07-24T04:23:11;26.00;;;23.73;;
1378;SDS011;683;48.738;9.226;2022-07-24T04:25:38;27.70;;;25.30;;
1378;SDS011;683;48.738;9.226;2022-07-24T04:28:07;25.27;;;23.07;;
1378;SDS011;683;48.738;9.226;2022-07-24T04:30:35;26.70;;;24.20;;
1378;SDS011;683;48.738;9.226;2022-07-24T04:33:02;27.70;;;25.10;;
1378;SDS011;683;48.738;9.226;2022-07-24T04:35:30;25.57;;;23.27;;
1378;SDS011;683;48.738;9.226;2022-07-24T04:38:00;27.73;;;25.17;;
1378;SDS011;683;48.738;9.226;2022-07-24T04:40:27;23.43;;;21.30;;
1378;SDS011;683;48.738;9.226;2022-07-24T04:42:55;24.57;;;22.20;;
1378;SDS011;683;48.738;9.226;2022-07-24T04:45:24;24.53;;;22.27;;
1378;SDS011;683;48.738;9.226;2022-07-24T04:47:51;23.33;;;21.10;;
1378;SDS011;683;48.738;9.226;2022-07-24T04:50:24;22.93;;;20.70;;
1378;SDS011;683;48.738;9.226;2022-07-24T04:52:53;23.70;;;21.60;;
1378;SDS011;683;48.738;9.226;2022-07-24T04:55:21;23.40;;;21.50;;
1378;SDS011;683;48.738;9.226;2022-07-24T04:57:48;23.83;;;21.83;;
1378;SDS011;683;48.738;9.226;2022-07-24T05:00:16;24.53;;;22.20;;
1378;SDS011;683;48.738;9.226;2022-07-24T05:05:27;23.13;;;20.93;;
1378;SDS011;683;48.738;9.226;2022-07-24T05:07:55;25.00;;;22.70;;
1378;SDS011;683;48.738;9.226;2022-07-24T05:10:22;22.97;;;20.90;;
1378;SDS011;683;48.738;9.226;2022-07-24T05:12:49;23.50;;;21.27;;
1378;SDS011;683;48.738;9.226;2022-07-24T05:15:17;23.23;;;21.23;;
1378;SDS011;683;48.738;9.226;2022-07-24T05:20:38;23.87;;;21.77;;
1378;SDS011;683;48.738;9.226;2022-07-24T05:23:06;21.60;;;19.77;;
1378;SDS011;683;48.738;9.226;2022-07-24T05:25:33;23.60;;;21.47;;
1378;SDS011;683;48.738;9.226;2022-07-24T05:28:00;27.30;;;21.57;;
1378;SDS011;683;48.738;9.226;2022-07-24T05:30:28;22.47;;;20.57;;
1378;SDS011;683;48.738;9.226;2022-07-24T05:32:55;24.00;;;22.00;;
1378;SDS011;683;48.738;9.226;2022-07-24T05:35:24;23.13;;;21.03;;
1378;SDS011;683;48.738;9.226;2022-07-24T05:37:51;24.97;;;22.33;;
1378;SDS011;683;48.738;9.226;2022-07-24T05:40:19;25.10;;;22.63;;
1378;SDS011;683;48.738;9.226;2022-07-24T05:42:46;23.57;;;21.50;;
1378;SDS011;683;48.738;9.226;2022-07-24T05:45:13;23.77;;;21.50;;
1378;SDS011;683;48.738;9.226;2022-07-24T05:47:41;22.90;;;20.77;;
1378;SDS011;683;48.738;9.226;2022-07-24T05:50:08;22.87;;;20.80;;
1378;SDS011;683;48.738;9.226;2022-07-24T05:52:38;22.57;;;20.47;;
1378;SDS011;683;48.738;9.226;2022-07-24T05:55:07;23.43;;;21.33;;
1378;SDS011;683;48.738;9.226;2022-07-24T05:57:39;20.73;;;18.90;;
1378;SDS011;683;48.738;9.226;2022-07-24T06:00:06;24.03;;;21.93;;
1378;SDS011;683;48.738;9.226;2022-07-24T06:02:37;21.30;;;19.53;;
1378;SDS011;683;48.738;9.226;2022-07-24T06:05:05;21.03;;;19.07;;
1378;SDS011;683;48.738;9.226;2022-07-24T06:07:32;21.73;;;19.73;;
1378;SDS011;683;48.738;9.226;2022-07-24T06:10:01;22.77;;;20.77;;
1378;SDS011;683;48.738;9.226;2022-07-24T06:15:21;19.60;;;17.80;;
1378;SDS011;683;48.738;9.226;2022-07-24T06:17:48;18.77;;;17.00;;
1378;SDS011;683;48.738;9.226;2022-07-24T06:20:16;21.20;;;19.30;;
1378;SDS011;683;48.738;9.226;2022-07-24T06:22:44;19.33;;;17.73;;
1378;SDS011;683;48.738;9.226;2022-07-24T06:25:13;18.87;;;17.30;;
1378;SDS011;683;48.738;9.226;2022-07-24T06:27:42;17.57;;;15.97;;
1378;SDS011;683;48.738;9.226;2022-07-24T06:30:16;16.70;;;15.43;;
1378;SDS011;683;48.738;9.226;2022-07-24T06:32:45;17.70;;;15.73;;
1378;SDS011;683;48.738;9.226;2022-07-24T06:35:12;17.20;;;15.80;;
1378;SDS011;683;48.738;9.226;2022-07-24T06:37:39;18.20;;;16.73;;
1378;SDS011;683;48.738;9.226;2022-07-24T06:40:08;16.87;;;15.37;;
1378;SDS011;683;48.738;9.226;2022-07-24T06:42:37;17.80;;;15.20;;
1378;SDS011;683;48.738;9.226;2022-07-24T06:45:05;15.63;;;14.43;;
1378;SDS011;683;48.738;9.226;2022-07-24T06:47:33;15.97;;;14.60;;
1378;SDS011;683;48.738;9.226;2022-07-24T06:50:00;14.47;;;13.37;;
1378;SDS011;683;48.738;9.226;2022-07-24T06:52:28;15.90;;;14.60;;
1378;SDS011;683;48.738;9.226;2022-07-24T06:54:56;17.33;;;15.80;;
1378;SDS011;683;48.738;9.226;2022-07-24T06:57:23;13.93;;;12.70;;
1378;SDS011;683;48.738;9.226;2022-07-24T07:02:52;13.90;;;12.70;;
1378;SDS011;683;48.738;9.226;2022-07-24T07:05:19;14.07;;;12.87;;
1378;SDS011;683;48.738;9.226;2022-07-24T07:07:49;13.40;;;12.30;;
1378;SDS011;683;48.738;9.226;2022-07-24T07:10:16;13.20;;;11.77;;
1378;SDS011;683;48.738;9.226;2022-07-24T07:12:52;12.80;;;11.60;;
1378;SDS011;683;48.738;9.226;2022-07-24T07:15:22;12.73;;;11.73;;
1378;SDS011;683;48.738;9.226;2022-07-24T07:17:51;13.17;;;12.27;;
1378;SDS011;683;48.738;9.226;2022-07-24T07:20:18;14.30;;;13.10;;
1378;SDS011;683;48.738;9.226;2022-07-24T07:22:45;14.20;;;13.00;;
1378;SDS011;683;48.738;9.226;2022-07-24T07:25:13;12.50;;;11.23;;
1378;SDS011;683;48.738;9.226;2022-07-24T07:27:40;13.30;;;12.30;;
1378;SDS011;683;48.738;9.226;2022-07-24T07:30:08;14.43;;;13.07;;
1378;SDS011;683;48.738;9.226;2022-07-24T07:32:37;13.63;;;12.50;;
1378;SDS011;683;48.738;9.226;2022-07-24T07:35:07;12.70;;;11.70;;
1378;SDS011;683;48.738;9.226;2022-07-24T07:37:35;12.60;;;11.60;;
1378;SDS011;683;48.738;9.226;2022-07-24T07:40:02;13.30;;;12.10;;
1378;SDS011;683;48.738;9.226;2022-07-24T07:42:30;12.17;;;11.17;;
1378;SDS011;683;48.738;9.226;2022-07-24T07:44:57;10.27;;;9.57;;
1378;SDS011;683;48.738;9.226;2022-07-24T07:47:25;11.07;;;10.17;;
1378;SDS011;683;48.738;9.226;2022-07-24T07:49:52;10.80;;;9.90;;
1378;SDS011;683;48.738;9.226;2022-07-24T07:52:22;11.10;;;10.00;;
1378;SDS011;683;48.738;9.226;2022-07-24T07:54:49;10.20;;;9.40;;
1378;SDS011;683;48.738;9.226;2022-07-24T07:57:17;9.47;;;8.77;;
1378;SDS011;683;48.738;9.226;2022-07-24T07:59:44;10.30;;;9.40;;
1378;SDS011;683;48.738;9.226;2022-07-24T08:02:12;10.10;;;9.30;;
1378;SDS011;683;48.738;9.226;2022-07-24T08:04:41;11.03;;;10.13;;
1378;SDS011;683;48.738;9.226;2022-07-24T08:07:09;10.50;;;9.60;;
1378;SDS011;683;48.738;9.226;2022-07-24T08:09:38;11.20;;;9.57;;
1378;SDS011;683;48.738;9.226;2022-07-24T08:12:05;10.90;;;9.80;;
1378;SDS011;683;48.738;9.226;2022-07-24T08:17:27;10.17;;;9.40;;
1378;SDS011;683;48.738;9.226;2022-07-24T08:19:54;10.50;;;9.70;;
1378;SDS011;683;48.738;9.226;2022-07-24T08:22:22;9.80;;;9.10;;
1378;SDS011;683;48.738;9.226;2022-07-24T08:24:50;10.33;;;9.53;;
1378;SDS011;683;48.738;9.226;2022-07-24T08:27:18;10.13;;;9.13;;
1378;SDS011;683;48.738;9.226;2022-07-24T08:29:45;9.63;;;8.87;;
1378;SDS011;683;48.738;9.226;2022-07-24T08:32:12;11.20;;;9.37;;
1378;SDS011;683;48.738;9.226;2022-07-24T08:34:40;11.83;;;9.70;;
1378;SDS011;683;48.738;9.226;2022-07-24T08:37:07;9.77;;;8.87;;
1378;SDS011;683;48.738;9.226;2022-07-24T08:39:34;10.40;;;9.20;;
1378;SDS011;683;48.738;9.226;2022-07-24T08:42:09;12.27;;;10.13;;
1378;SDS011;683;48.738;9.226;2022-07-24T08:44:37;9.70;;;8.90;;
1378;SDS011;683;48.738;9.226;2022-07-24T08:47:05;10.80;;;9.80;;
1378;SDS011;683;48.738;9.226;2022-07-24T08:49:34;10.93;;;10.03;;
1378;SDS011;683;48.738;9.226;2022-07-24T08:52:04;10.57;;;9.77;;
1378;SDS011;683;48.738;9.226;2022-07-24T08:54:33;10.00;;;9.00;;
1378;SDS011;683;48.738;9.226;2022-07-24T08:57:01;9.90;;;9.10;;
1378;SDS011;683;48.738;9.226;2022-07-24T08:59:30;10.20;;;9.40;;
1378;SDS011;683;48.738;9.226;2022-07-24T09:01:58;10.40;;;9.60;;
1378;SDS011;683;48.738;9.226;2022-07-24T09:04:32;9.73;;;9.03;;
1378;SDS011;683;48.738;9.226;2022-07-24T09:07:04;11.30;;;10.40;;
1378;SDS011;683;48.738;9.226;2022-07-24T09:09:33;9.80;;;9.00;;
1378;SDS011;683;48.738;9.226;2022-07-24T09:12:04;11.10;;;10.20;;
1378;SDS011;683;48.738;9.226;2022-07-24T09:14:35;9.57;;;8.87;;
1378;SDS011;683;48.738;9.226;2022-07-24T09:17:04;10.40;;;9.47;;
1378;SDS011;683;48.738;9.226;2022-07-24T09:22:19;10.60;;;9.80;;
1378;SDS011;683;48.738;9.226;2022-07-24T09:25:08;9.87;;;9.00;;
1378;SDS011;683;48.738;9.226;2022-07-24T09:30:32;9.90;;;9.20;;
1378;SDS011;683;48.738;9.226;2022-07-24T09:33:03;9.93;;;9.13;;
1378;SDS011;683;48.738;9.226;2022-07-24T09:35:42;9.87;;;9.07;;
1378;SDS011;683;48.738;9.226;2022-07-24T09:38:11;10.00;;;9.30;;
1378;SDS011;683;48.738;9.226;2022-07-24T09:40:40;9.63;;;8.93;;
1378;SDS011;683;48.738;9.226;2022-07-24T09:43:13;8.87;;;8.20;;
1378;SDS011;683;48.738;9.226;2022-07-24T09:45:52;10.23;;;9.43;;
1378;SDS011;683;48.738;9.226;2022-07-24T09:48:25;9.80;;;8.97;;
1378;SDS011;683;48.738;9.226;2022-07-24T09:53:52;9.40;;;8.70;;
1378;SDS011;683;48.738;9.226;2022-07-24T09:56:21;10.87;;;9.90;;
1378;SDS011;683;48.738;9.226;2022-07-24T09:58:59;10.03;;;9.13;;
1378;SDS011;683;48.738;9.226;2022-07-24T10:01:34;9.63;;;8.93;;
1378;SDS011;683;48.738;9.226;2022-07-24T10:04:04;9.07;;;8.30;;
1378;SDS011;683;48.738;9.226;2022-07-24T10:06:34;10.47;;;9.57;;
1378;SDS011;683;48.738;9.226;2022-07-24T10:09:04;9.43;;;8.30;;
1378;SDS011;683;48.738;9.226;2022-07-24T10:11:33;9.20;;;8.47;;
1378;SDS011;683;48.738;9.226;2022-07-24T10:14:07;9.70;;;8.90;;
1378;SDS011;683;48.738;9.226;2022-07-24T10:19:28;9.20;;;8.37;;
1378;SDS011;683;48.738;9.226;2022-07-24T10:22:16;10.97;;;9.80;;
1378;SDS011;683;48.738;9.226;2022-07-24T10:24:50;9.70;;;9.00;;
1378;SDS011;683;48.738;9.226;2022-07-24T10:27:31;9.70;;;9.00;;
1378;SDS011;683;48.738;9.226;2022-07-24T10:30:24;10.20;;;9.37;;
1378;SDS011;683;48.738;9.226;2022-07-24T10:32:53;10.00;;;9.37;;
1378;SDS011;683;48.738;9.226;2022-07-24T10:35:21;9.53;;;8.83;;
1378;SDS011;683;48.738;9.226;2022-07-24T10:37:53;10.90;;;10.00;;
1378;SDS011;683;48.738;9.226;2022-07-24T10:43:21;10.50;;;9.60;;
1378;SDS011;683;48.738;9.226;2022-07-24T10:48:41;10.43;;;9.63;;
1378;SDS011;683;48.738;9.226;2022-07-24T10:51:09;11.53;;;10.33;;
1378;SDS011;683;48.738;9.226;2022-07-24T10:53:44;11.13;;;10.33;;
1378;SDS011;683;48.738;9.226;2022-07-24T10:56:23;10.07;;;9.33;;
1378;SDS011;683;48.738;9.226;2022-07-24T10:59:01;9.20;;;8.50;;
1378;SDS011;683;48.738;9.226;2022-07-24T11:01:32;10.17;;;9.27;;
1378;SDS011;683;48.738;9.226;2022-07-24T11:04:04;11.23;;;10.43;;
1378;SDS011;683;48.738;9.226;2022-07-24T11:06:52;10.47;;;9.70;;
1378;SDS011;683;48.738;9.226;2022-07-24T11:09:21;10.27;;;9.47;;
1378;SDS011;683;48.738;9.226;2022-07-24T11:12:07;9.27;;;8.57;;
1378;SDS011;683;48.738;9.226;2022-07-24T11:14:47;10.60;;;8.97;;
1378;SDS011;683;48.738;9.226;2022-07-24T11:20:15;9.20;;;8.53;;
1378;SDS011;683;48.738;9.226;2022-07-24T11:22:45;9.80;;;9.10;;
1378;SDS011;683;48.738;9.226;2022-07-24T11:25:15;10.47;;;9.57;;
1378;SDS011;683;48.738;9.226;2022-07-24T11:27:47;9.87;;;9.17;;
1378;SDS011;683;48.738;9.226;2022-07-24T11:30:22;9.47;;;8.80;;
1378;SDS011;683;48.738;9.226;2022-07-24T11:32:51;11.00;;;10.00;;
1378;SDS011;683;48.738;9.226;2022-07-24T11:38:03;8.87;;;8.17;;
1378;SDS011;683;48.738;9.226;2022-07-24T11:40:32;10.17;;;9.37;;
1378;SDS011;683;48.738;9.226;2022-07-24T11:43:00;11.23;;;9.73;;
1378;SDS011;683;48.738;9.226;2022-07-24T11:45:29;9.17;;;8.43;;
1378;SDS011;683;48.738;9.226;2022-07-24T11:47:56;9.33;;;8.47;;
1378;SDS011;683;48.738;9.226;2022-07-24T11:50:24;9.50;;;8.80;;
1378;SDS011;683;48.738;9.226;2022-07-24T11:52:54;10.50;;;9.60;;
1378;SDS011;683;48.738;9.226;2022-07-24T11:55:36;8.83;;;8.23;;
1378;SDS011;683;48.738;9.226;2022-07-24T11:58:03;10.00;;;9.30;;
1378;SDS011;683;48.738;9.226;2022-07-24T12:00:30;10.57;;;9.60;;
1378;SDS011;683;48.738;9.226;2022-07-24T12:03:01;10.47;;;9.77;;
1378;SDS011;683;48.738;9.226;2022-07-24T12:05:29;9.87;;;9.07;;
1378;SDS011;683;48.738;9.226;2022-07-24T12:08:00;10.43;;;9.40;;
1378;SDS011;683;48.738;9.226;2022-07-24T12:10:30;10.40;;;9.70;;
1378;SDS011;683;48.738;9.226;2022-07-24T12:12:58;9.93;;;9.13;;
1378;SDS011;683;48.738;9.226;2022-07-24T12:15:25;9.90;;;9.17;;
1378;SDS011;683;48.738;9.226;2022-07-24T12:17:54;9.70;;;8.87;;
1378;SDS011;683;48.738;9.226;2022-07-24T12:20:37;9.00;;;8.30;;
1378;SDS011;683;48.738;9.226;2022-07-24T12:23:07;9.17;;;8.40;;
1378;SDS011;683;48.738;9.226;2022-07-24T12:25:37;10.00;;;9.10;;
1378;SDS011;683;48.738;9.226;2022-07-24T12:28:05;8.07;;;7.57;;
1378;SDS011;683;48.738;9.226;2022-07-24T12:30:34;8.40;;;7.70;;
1378;SDS011;683;48.738;9.226;2022-07-24T12:33:04;8.80;;;8.20;;
1378;SDS011;683;48.738;9.226;2022-07-24T12:35:34;8.40;;;7.80;;
1378;SDS011;683;48.738;9.226;2022-07-24T12:38:25;9.23;;;8.43;;
1378;SDS011;683;48.738;9.226;2022-07-24T12:41:03;8.47;;;7.97;;
1378;SDS011;683;48.738;9.226;2022-07-24T12:43:56;9.17;;;8.57;;
1378;SDS011;683;48.738;9.226;2022-07-24T12:46:28;9.00;;;8.40;;
1378;SDS011;683;48.738;9.226;2022-07-24T12:48:58;7.80;;;7.30;;
1378;SDS011;683;48.738;9.226;2022-07-24T12:51:27;7.93;;;7.33;;
1378;SDS011;683;48.738;9.226;2022-07-24T12:54:15;9.33;;;8.80;;
1378;SDS011;683;48.738;9.226;2022-07-24T12:56:44;8.67;;;7.97;;
1378;SDS011;683;48.738;9.226;2022-07-24T12:59:22;8.30;;;7.60;;
1378;SDS011;683;48.738;9.226;2022-07-24T13:01:52;8.70;;;8.00;;
1378;SDS011;683;48.738;9.226;2022-07-24T13:04:21;8.80;;;8.10;;
1378;SDS011;683;48.738;9.226;2022-07-24T13:06:50;8.80;;;8.20;;
1378;SDS011;683;48.738;9.226;2022-07-24T13:09:21;8.07;;;7.60;;
1378;SDS011;683;48.738;9.226;2022-07-24T13:11:50;8.87;;;8.37;;
1378;SDS011;683;48.738;9.226;2022-07-24T13:14:18;8.90;;;8.30;;
1378;SDS011;683;48.738;9.226;2022-07-24T13:16:52;8.40;;;7.77;;
1378;SDS011;683;48.738;9.226;2022-07-24T13:19:20;8.90;;;8.30;;
1378;SDS011;683;48.738;9.226;2022-07-24T13:21:48;10.13;;;9.00;;
1378;SDS011;683;48.738;9.226;2022-07-24T13:24:15;8.43;;;7.80;;
1378;SDS011;683;48.738;9.226;2022-07-24T13:26:44;8.73;;;8.23;;
1378;SDS011;683;48.738;9.226;2022-07-24T13:29:12;8.37;;;7.80;;
1378;SDS011;683;48.738;9.226;2022-07-24T13:31:40;8.43;;;7.83;;
1378;SDS011;683;48.738;9.226;2022-07-24T13:34:10;7.90;;;7.40;;
1378;SDS011;683;48.738;9.226;2022-07-24T13:36:37;8.03;;;7.33;;
1378;SDS011;683;48.738;9.226;2022-07-24T13:39:05;7.67;;;7.17;;
1378;SDS011;683;48.738;9.226;2022-07-24T13:41:33;8.80;;;8.10;;
1378;SDS011;683;48.738;9.226;2022-07-24T13:44:10;7.40;;;7.00;;
1378;SDS011;683;48.738;9.226;2022-07-24T13:46:37;7.70;;;7.20;;
1378;SDS011;683;48.738;9.226;2022-07-24T13:49:05;7.03;;;6.53;;
1378;SDS011;683;48.738;9.226;2022-07-24T13:51:33;7.77;;;7.37;;
1378;SDS011;683;48.738;9.226;2022-07-24T13:54:01;7.47;;;6.97;;
1378;SDS011;683;48.738;9.226;2022-07-24T13:56:29;8.40;;;7.90;;
1378;SDS011;683;48.738;9.226;2022-07-24T13:58:57;7.83;;;7.10;;
1378;SDS011;683;48.738;9.226;2022-07-24T14:01:31;8.03;;;7.53;;
1378;SDS011;683;48.738;9.226;2022-07-24T14:04:03;7.87;;;7.37;;
1378;SDS011;683;48.738;9.226;2022-07-24T14:06:34;8.20;;;7.70;;
1378;SDS011;683;48.738;9.226;2022-07-24T14:09:01;7.20;;;6.80;;
1378;SDS011;683;48.738;9.226;2022-07-24T14:11:35;7.00;;;6.60;;
1378;SDS011;683;48.738;9.226;2022-07-24T14:14:02;8.53;;;8.03;;
1378;SDS011;683;48.738;9.226;2022-07-24T14:16:31;7.60;;;7.10;;
1378;SDS011;683;48.738;9.226;2022-07-24T14:18:58;8.00;;;7.50;;
1378;SDS011;683;48.738;9.226;2022-07-24T14:21:26;7.57;;;7.10;;
1378;SDS011;683;48.738;9.226;2022-07-24T14:23:54;7.90;;;7.40;;
1378;SDS011;683;48.738;9.226;2022-07-24T14:26:21;7.83;;;7.43;;
1378;SDS011;683;48.738;9.226;2022-07-24T14:28:48;7.43;;;7.03;;
1378;SDS011;683;48.738;9.226;2022-07-24T14:31:16;6.97;;;6.57;;
1378;SDS011;683;48.738;9.226;2022-07-24T14:33:44;8.00;;;7.50;;
1378;SDS011;683;48.738;9.226;2022-07-24T14:36:12;7.40;;;6.80;;
1378;SDS011;683;48.738;9.226;2022-07-24T14:38:39;8.27;;;7.67;;
1378;SDS011;683;48.738;9.226;2022-07-24T14:41:06;7.70;;;7.30;;
1378;SDS011;683;48.738;9.226;2022-07-24T14:43:33;7.73;;;7.33;;
1378;SDS011;683;48.738;9.226;2022-07-24T14:46:01;8.57;;;7.97;;
1378;SDS011;683;48.738;9.226;2022-07-24T14:48:29;7.90;;;7.50;;
1378;SDS011;683;48.738;9.226;2022-07-24T14:50:58;7.63;;;7.23;;
1378;SDS011;683;48.738;9.226;2022-07-24T14:53:28;7.70;;;7.30;;
1378;SDS011;683;48.738;9.226;2022-07-24T14:55:56;8.00;;;7.50;;
1378;SDS011;683;48.738;9.226;2022-07-24T14:58:23;8.10;;;7.70;;
1378;SDS011;683;48.738;9.226;2022-07-24T15:00:50;8.23;;;7.73;;
1378;SDS011;683;48.738;9.226;2022-07-24T15:03:22;8.17;;;7.67;;
1378;SDS011;683;48.738;9.226;2022-07-24T15:05:50;7.32;;;6.90;;
1378;SDS011;683;48.738;9.226;2022-07-24T15:08:24;8.27;;;7.78;;
1378;SDS011;683;48.738;9.226;2022-07-24T15:10:51;8.10;;;7.50;;
1378;SDS011;683;48.738;9.226;2022-07-24T15:13:19;8.27;;;7.68;;
1378;SDS011;683;48.738;9.226;2022-07-24T15:15:47;7.43;;;7.03;;
1378;SDS011;683;48.738;9.226;2022-07-24T15:18:19;7.50;;;7.10;;
1378;SDS011;683;48.738;9.226;2022-07-24T15:20:48;7.73;;;7.23;;
1378;SDS011;683;48.738;9.226;2022-07-24T15:23:16;8.10;;;7.70;;
1378;SDS011;683;48.738;9.226;2022-07-24T15:25:44;7.57;;;7.18;;
1378;SDS011;683;48.738;9.226;2022-07-24T15:28:12;8.30;;;7.80;;
1378;SDS011;683;48.738;9.226;2022-07-24T15:30:40;7.32;;;6.82;;
1378;SDS011;683;48.738;9.226;2022-07-24T15:33:07;7.35;;;6.85;;
1378;SDS011;683;48.738;9.226;2022-07-24T15:35:35;6.60;;;6.07;;
1378;SDS011;683;48.738;9.226;2022-07-24T15:38:02;7.07;;;6.70;;
1378;SDS011;683;48.738;9.226;2022-07-24T15:40:29;8.88;;;8.30;;
1378;SDS011;683;48.738;9.226;2022-07-24T15:42:59;8.10;;;7.60;;
1378;SDS011;683;48.738;9.226;2022-07-24T15:45:27;7.53;;;7.13;;
1378;SDS011;683;48.738;9.226;2022-07-24T15:47:55;7.97;;;7.47;;
1378;SDS011;683;48.738;9.226;2022-07-24T15:50:22;7.70;;;7.30;;
1378;SDS011;683;48.738;9.226;2022-07-24T15:52:50;7.97;;;7.47;;
1378;SDS011;683;48.738;9.226;2022-07-24T15:55:17;7.50;;;7.10;;
1378;SDS011;683;48.738;9.226;2022-07-24T15:57:58;7.95;;;7.47;;
1378;SDS011;683;48.738;9.226;2022-07-24T16:00:25;7.70;;;7.10;;
1378;SDS011;683;48.738;9.226;2022-07-24T16:02:53;8.00;;;7.53;;
1378;SDS011;683;48.738;9.226;2022-07-24T16:05:20;7.70;;;7.30;;
1378;SDS011;683;48.738;9.226;2022-07-24T16:07:48;8.10;;;7.70;;
1378;SDS011;683;48.738;9.226;2022-07-24T16:10:16;8.32;;;7.78;;